sensor_id;sensor_type;location;lat;lon;timestamp;pressure;altitude;pressure_sealevel;temperature;humidity
7264;BME280;3673;52.480;13.348;2023-01-27T00:02:18;101771.97;;;6.02;60.71
7264;BME280;3673;52.480;13.348;2023-01-27T00:04:45;101768.13;;;6.16;60.21
7264;BME280;3673;52.480;13.348;2023-01-27T00:07:12;101760.69;;;6.27;59.75
7264;BME280;3673;52.480;13.348;2023-01-27T00:09:40;101767.28;;;6.17;60.02
7264;BME280;3673;52.480;13.348;2023-01-27T00:12:17;101770.50;;;6.10;60.31
7264;BME280;3673;52.480;13.348;2023-01-27T00:15:03;101769.06;;;5.93;60.75
7264;BME280;3673;52.480;13.348;2023-01-27T00:17:30;101781.91;;;6.13;59.85
7264;BME280;3673;52.480;13.348;2023-01-27T00:19:57;101778.59;;;5.94;59.96
7264;BME280;3673;52.480;13.348;2023-01-27T00:22:24;101762.38;;;6.01;60.10
7264;BME280;3673;52.480;13.348;2023-01-27T00:25:09;101763.66;;;6.12;59.70
7264;BME280;3673;52.480;13.348;2023-01-27T00:27:36;101756.78;;;6.14;59.62
7264;BME280;3673;52.480;13.348;2023-01-27T00:30:05;101768.97;;;5.90;59.92
7264;BME280;3673;52.480;13.348;2023-01-27T00:32:32;101763.38;;;5.81;60.11
7264;BME280;3673;52.480;13.348;2023-01-27T00:35:17;101757.72;;;6.16;59.37
7264;BME280;3673;52.480;13.348;2023-01-27T00:37:44;101760.44;;;6.46;58.49
7264;BME280;3673;52.480;13.348;2023-01-27T00:40:15;101765.28;;;6.35;58.77
7264;BME280;3673;52.480;13.348;2023-01-27T00:42:43;101768.84;;;6.12;59.38
7264;BME280;3673;52.480;13.348;2023-01-27T00:45:10;101773.94;;;6.09;59.63
7264;BME280;3673;52.480;13.348;2023-01-27T00:47:55;101771.06;;;6.27;59.38
7264;BME280;3673;52.480;13.348;2023-01-27T00:50:23;101776.47;;;6.07;59.51
7264;BME280;3673;52.480;13.348;2023-01-27T00:52:50;101773.56;;;5.98;60.02
7264;BME280;3673;52.480;13.348;2023-01-27T00:55:18;101778.16;;;6.05;60.17
7264;BME280;3673;52.480;13.348;2023-01-27T00:57:45;101772.31;;;6.12;59.73
7264;BME280;3673;52.480;13.348;2023-01-27T01:00:13;101772.78;;;6.26;59.51
7264;BME280;3673;52.480;13.348;2023-01-27T01:02:40;101783.13;;;6.25;59.26
7264;BME280;3673;52.480;13.348;2023-01-27T01:05:08;101780.84;;;6.08;59.85
7264;BME280;3673;52.480;13.348;2023-01-27T01:07:35;101799.03;;;6.08;59.82
7264;BME280;3673;52.480;13.348;2023-01-27T01:10:02;101790.72;;;5.93;60.31
7264;BME280;3673;52.480;13.348;2023-01-27T01:12:30;101799.03;;;6.08;60.10
7264;BME280;3673;52.480;13.348;2023-01-27T01:14:57;101785.94;;;5.82;60.77
7264;BME280;3673;52.480;13.348;2023-01-27T01:17:24;101789.72;;;5.90;60.35
7264;BME280;3673;52.480;13.348;2023-01-27T01:19:50;101783.59;;;5.88;60.85
7264;BME280;3673;52.480;13.348;2023-01-27T01:22:17;101781.09;;;5.91;60.80
7264;BME280;3673;52.480;13.348;2023-01-27T01:24:44;101792.81;;;5.80;60.87
7264;BME280;3673;52.480;13.348;2023-01-27T01:27:11;101789.41;;;6.06;60.58
7264;BME280;3673;52.480;13.348;2023-01-27T01:29:39;101794.97;;;5.91;60.43
7264;BME280;3673;52.480;13.348;2023-01-27T01:32:06;101788.44;;;6.02;60.28
7264;BME280;3673;52.480;13.348;2023-01-27T01:34:35;101784.66;;;5.70;60.94
7264;BME280;3673;52.480;13.348;2023-01-27T01:37:02;101794.63;;;5.82;60.77
7264;BME280;3673;52.480;13.348;2023-01-27T01:39:29;101801.88;;;5.91;60.59
7264;BME280;3673;52.480;13.348;2023-01-27T01:41:56;101800.69;;;5.83;60.82
7264;BME280;3673;52.480;13.348;2023-01-27T01:44:25;101801.09;;;5.69;61.31
7264;BME280;3673;52.480;13.348;2023-01-27T01:46:55;101798.75;;;5.77;61.69
7264;BME280;3673;52.480;13.348;2023-01-27T01:49:26;101798.25;;;5.86;61.75
7264;BME280;3673;52.480;13.348;2023-01-27T01:51:57;101803.13;;;6.02;60.87
7264;BME280;3673;52.480;13.348;2023-01-27T01:54:29;101798.28;;;5.87;61.08
7264;BME280;3673;52.480;13.348;2023-01-27T01:57:01;101803.94;;;6.01;61.17
7264;BME280;3673;52.480;13.348;2023-01-27T01:59:33;101811.13;;;6.08;60.76
7264;BME280;3673;52.480;13.348;2023-01-27T02:02:08;101812.38;;;6.19;60.48
7264;BME280;3673;52.480;13.348;2023-01-27T02:04:43;101808.72;;;5.89;60.88
7264;BME280;3673;52.480;13.348;2023-01-27T02:07:17;101809.63;;;6.14;60.50
7264;BME280;3673;52.480;13.348;2023-01-27T02:09:45;101803.34;;;6.08;60.38
7264;BME280;3673;52.480;13.348;2023-01-27T02:12:12;101807.63;;;6.07;60.31
7264;BME280;3673;52.480;13.348;2023-01-27T02:14:39;101794.84;;;5.88;60.55
7264;BME280;3673;52.480;13.348;2023-01-27T02:17:08;101805.22;;;6.12;60.27
7264;BME280;3673;52.480;13.348;2023-01-27T02:19:50;101800.09;;;6.13;60.02
7264;BME280;3673;52.480;13.348;2023-01-27T02:22:25;101800.31;;;6.21;59.14
7264;BME280;3673;52.480;13.348;2023-01-27T02:25:00;101792.94;;;6.08;59.79
7264;BME280;3673;52.480;13.348;2023-01-27T02:27:32;101805.53;;;5.96;60.25
7264;BME280;3673;52.480;13.348;2023-01-27T02:29:59;101798.41;;;5.90;60.24
7264;BME280;3673;52.480;13.348;2023-01-27T02:32:26;101796.63;;;6.14;59.50
7264;BME280;3673;52.480;13.348;2023-01-27T02:34:55;101801.81;;;6.14;59.04
7264;BME280;3673;52.480;13.348;2023-01-27T02:37:22;101801.78;;;6.13;59.09
7264;BME280;3673;52.480;13.348;2023-01-27T02:39:50;101791.97;;;6.30;58.74
7264;BME280;3673;52.480;13.348;2023-01-27T02:42:18;101792.94;;;6.33;58.50
7264;BME280;3673;52.480;13.348;2023-01-27T02:44:47;101801.56;;;6.32;58.82
7264;BME280;3673;52.480;13.348;2023-01-27T02:47:14;101803.38;;;6.35;58.61
7264;BME280;3673;52.480;13.348;2023-01-27T02:49:40;101804.84;;;6.27;58.76
7264;BME280;3673;52.480;13.348;2023-01-27T02:52:07;101804.06;;;6.29;58.50
7264;BME280;3673;52.480;13.348;2023-01-27T02:54:34;101805.97;;;6.35;58.51
7264;BME280;3673;52.480;13.348;2023-01-27T02:57:01;101806.84;;;6.34;58.39
7264;BME280;3673;52.480;13.348;2023-01-27T02:59:28;101818.19;;;6.37;58.48
7264;BME280;3673;52.480;13.348;2023-01-27T03:01:56;101815.81;;;6.43;58.47
7264;BME280;3673;52.480;13.348;2023-01-27T03:04:23;101822.31;;;6.57;57.80
7264;BME280;3673;52.480;13.348;2023-01-27T03:06:49;101822.19;;;6.28;58.64
7264;BME280;3673;52.480;13.348;2023-01-27T03:09:17;101826.66;;;6.32;58.77
7264;BME280;3673;52.480;13.348;2023-01-27T03:11:44;101821.22;;;6.51;58.42
7264;BME280;3673;52.480;13.348;2023-01-27T03:14:28;101824.50;;;6.44;58.29
7264;BME280;3673;52.480;13.348;2023-01-27T03:17:14;101818.63;;;6.51;58.27
7264;BME280;3673;52.480;13.348;2023-01-27T03:19:58;101826.63;;;6.30;59.08
7264;BME280;3673;52.480;13.348;2023-01-27T03:22:25;101806.16;;;6.41;58.34
7264;BME280;3673;52.480;13.348;2023-01-27T03:24:52;101821.41;;;6.55;58.17
7264;BME280;3673;52.480;13.348;2023-01-27T03:27:19;101821.03;;;6.45;58.19
7264;BME280;3673;52.480;13.348;2023-01-27T03:29:46;101817.44;;;6.41;58.27
7264;BME280;3673;52.480;13.348;2023-01-27T03:32:26;101814.06;;;6.70;57.69
7264;BME280;3673;52.480;13.348;2023-01-27T03:34:54;101819.06;;;6.63;58.10
7264;BME280;3673;52.480;13.348;2023-01-27T03:37:22;101824.19;;;6.61;58.34
7264;BME280;3673;52.480;13.348;2023-01-27T03:40:08;101822.47;;;6.62;57.84
7264;BME280;3673;52.480;13.348;2023-01-27T03:42:53;101824.81;;;6.54;58.14
7264;BME280;3673;52.480;13.348;2023-01-27T03:45:38;101822.38;;;6.59;58.25
7264;BME280;3673;52.480;13.348;2023-01-27T03:48:24;101820.50;;;6.55;58.10
7264;BME280;3673;52.480;13.348;2023-01-27T03:50:56;101825.38;;;6.71;57.97
7264;BME280;3673;52.480;13.348;2023-01-27T03:53:23;101824.63;;;6.48;58.72
7264;BME280;3673;52.480;13.348;2023-01-27T03:55:50;101817.47;;;6.68;57.91
7264;BME280;3673;52.480;13.348;2023-01-27T03:58:21;101823.84;;;6.78;57.66
7264;BME280;3673;52.480;13.348;2023-01-27T04:00:51;101818.72;;;6.54;58.28
7264;BME280;3673;52.480;13.348;2023-01-27T04:03:19;101817.41;;;6.40;58.36
7264;BME280;3673;52.480;13.348;2023-01-27T04:06:08;101818.06;;;6.59;58.30
7264;BME280;3673;52.480;13.348;2023-01-27T04:08:52;101810.41;;;6.64;58.10
7264;BME280;3673;52.480;13.348;2023-01-27T04:11:19;101814.75;;;6.63;58.28
7264;BME280;3673;52.480;13.348;2023-01-27T04:14:05;101814.84;;;6.66;58.46
7264;BME280;3673;52.480;13.348;2023-01-27T04:16:33;101821.47;;;6.57;58.90
7264;BME280;3673;52.480;13.348;2023-01-27T04:19:02;101819.84;;;6.60;58.66
7264;BME280;3673;52.480;13.348;2023-01-27T04:21:30;101817.19;;;6.59;58.64
7264;BME280;3673;52.480;13.348;2023-01-27T04:23:58;101819.72;;;6.57;58.77
7264;BME280;3673;52.480;13.348;2023-01-27T04:26:26;101827.03;;;6.69;58.50
7264;BME280;3673;52.480;13.348;2023-01-27T04:28:57;101828.81;;;6.70;58.68
7264;BME280;3673;52.480;13.348;2023-01-27T04:31:25;101831.00;;;6.85;58.29
7264;BME280;3673;52.480;13.348;2023-01-27T04:33:52;101832.88;;;6.89;58.34
7264;BME280;3673;52.480;13.348;2023-01-27T04:36:19;101836.94;;;6.81;58.11
7264;BME280;3673;52.480;13.348;2023-01-27T04:38:47;101836.91;;;6.52;59.20
7264;BME280;3673;52.480;13.348;2023-01-27T04:41:14;101830.13;;;6.57;59.35
7264;BME280;3673;52.480;13.348;2023-01-27T04:43:41;101828.47;;;6.59;59.61
7264;BME280;3673;52.480;13.348;2023-01-27T04:46:08;101823.84;;;6.78;58.98
7264;BME280;3673;52.480;13.348;2023-01-27T04:48:34;101832.84;;;6.60;59.67
7264;BME280;3673;52.480;13.348;2023-01-27T04:51:01;101831.88;;;6.57;59.60
7264;BME280;3673;52.480;13.348;2023-01-27T04:53:28;101837.78;;;6.80;59.28
7264;BME280;3673;52.480;13.348;2023-01-27T04:56:01;101844.72;;;6.79;59.51
7264;BME280;3673;52.480;13.348;2023-01-27T04:58:29;101848.28;;;6.83;59.13
7264;BME280;3673;52.480;13.348;2023-01-27T05:00:55;101834.88;;;6.70;59.65
7264;BME280;3673;52.480;13.348;2023-01-27T05:03:22;101850.41;;;6.42;60.35
7264;BME280;3673;52.480;13.348;2023-01-27T05:05:50;101839.66;;;6.57;60.06
7264;BME280;3673;52.480;13.348;2023-01-27T05:08:17;101851.81;;;6.58;60.26
7264;BME280;3673;52.480;13.348;2023-01-27T05:10:44;101845.63;;;6.81;59.59
7264;BME280;3673;52.480;13.348;2023-01-27T05:13:12;101845.94;;;6.90;59.52
7264;BME280;3673;52.480;13.348;2023-01-27T05:15:39;101853.50;;;6.83;59.47
7264;BME280;3673;52.480;13.348;2023-01-27T05:18:06;101862.03;;;6.79;59.67
7264;BME280;3673;52.480;13.348;2023-01-27T05:20:33;101860.56;;;6.87;59.81
7264;BME280;3673;52.480;13.348;2023-01-27T05:23:00;101859.25;;;6.74;59.63
7264;BME280;3673;52.480;13.348;2023-01-27T05:25:42;101868.28;;;6.84;59.83
7264;BME280;3673;52.480;13.348;2023-01-27T05:28:09;101865.31;;;6.73;60.06
7264;BME280;3673;52.480;13.348;2023-01-27T05:30:37;101870.09;;;6.86;59.67
7264;BME280;3673;52.480;13.348;2023-01-27T05:33:04;101877.88;;;6.86;59.38
7264;BME280;3673;52.480;13.348;2023-01-27T05:35:34;101876.66;;;6.75;59.55
7264;BME280;3673;52.480;13.348;2023-01-27T05:38:01;101881.13;;;6.79;59.97
7264;BME280;3673;52.480;13.348;2023-01-27T05:40:27;101882.91;;;6.80;60.34
7264;BME280;3673;52.480;13.348;2023-01-27T05:42:54;101887.16;;;6.78;59.84
7264;BME280;3673;52.480;13.348;2023-01-27T05:45:21;101875.19;;;6.83;60.18
7264;BME280;3673;52.480;13.348;2023-01-27T05:47:50;101877.28;;;6.95;59.98
7264;BME280;3673;52.480;13.348;2023-01-27T05:50:17;101879.00;;;6.94;60.24
7264;BME280;3673;52.480;13.348;2023-01-27T05:52:44;101881.22;;;6.82;60.44
7264;BME280;3673;52.480;13.348;2023-01-27T05:55:11;101876.22;;;6.88;60.33
7264;BME280;3673;52.480;13.348;2023-01-27T05:57:38;101885.59;;;6.83;60.93
7264;BME280;3673;52.480;13.348;2023-01-27T06:00:06;101885.69;;;6.86;61.16
7264;BME280;3673;52.480;13.348;2023-01-27T06:02:33;101891.03;;;6.91;61.35
7264;BME280;3673;52.480;13.348;2023-01-27T06:05:01;101886.78;;;6.93;61.68
7264;BME280;3673;52.480;13.348;2023-01-27T06:07:28;101883.81;;;6.82;62.18
7264;BME280;3673;52.480;13.348;2023-01-27T06:09:55;101892.91;;;6.95;61.82
7264;BME280;3673;52.480;13.348;2023-01-27T06:12:21;101890.38;;;6.98;61.44
7264;BME280;3673;52.480;13.348;2023-01-27T06:14:48;101891.97;;;6.93;61.58
7264;BME280;3673;52.480;13.348;2023-01-27T06:17:15;101895.31;;;6.89;62.12
7264;BME280;3673;52.480;13.348;2023-01-27T06:19:42;101881.84;;;6.75;61.82
7264;BME280;3673;52.480;13.348;2023-01-27T06:22:10;101886.88;;;6.70;62.21
7264;BME280;3673;52.480;13.348;2023-01-27T06:24:36;101876.09;;;6.85;62.03
7264;BME280;3673;52.480;13.348;2023-01-27T06:27:03;101889.28;;;6.64;63.11
7264;BME280;3673;52.480;13.348;2023-01-27T06:29:30;101887.47;;;6.62;62.47
7264;BME280;3673;52.480;13.348;2023-01-27T06:31:57;101878.91;;;6.39;63.12
7264;BME280;3673;52.480;13.348;2023-01-27T06:34:23;101892.59;;;6.34;64.17
7264;BME280;3673;52.480;13.348;2023-01-27T06:36:52;101883.97;;;6.60;64.22
7264;BME280;3673;52.480;13.348;2023-01-27T06:39:20;101893.94;;;6.73;63.59
7264;BME280;3673;52.480;13.348;2023-01-27T06:41:48;101889.94;;;6.84;63.41
7264;BME280;3673;52.480;13.348;2023-01-27T06:44:15;101892.25;;;6.75;63.19
7264;BME280;3673;52.480;13.348;2023-01-27T06:46:42;101899.59;;;6.87;62.61
7264;BME280;3673;52.480;13.348;2023-01-27T06:49:09;101889.22;;;6.88;62.45
7264;BME280;3673;52.480;13.348;2023-01-27T06:51:36;101906.00;;;6.98;62.66
7264;BME280;3673;52.480;13.348;2023-01-27T06:54:03;101915.13;;;7.12;62.45
7264;BME280;3673;52.480;13.348;2023-01-27T06:56:31;101915.69;;;7.02;62.73
7264;BME280;3673;52.480;13.348;2023-01-27T06:58:58;101904.88;;;6.90;62.38
7264;BME280;3673;52.480;13.348;2023-01-27T07:01:25;101903.59;;;7.04;62.56
7264;BME280;3673;52.480;13.348;2023-01-27T07:03:52;101911.72;;;7.13;62.74
7264;BME280;3673;52.480;13.348;2023-01-27T07:06:19;101907.13;;;7.06;62.78
7264;BME280;3673;52.480;13.348;2023-01-27T07:08:46;101905.81;;;7.18;62.78
7264;BME280;3673;52.480;13.348;2023-01-27T07:11:15;101915.94;;;7.38;61.67
7264;BME280;3673;52.480;13.348;2023-01-27T07:13:43;101920.97;;;7.32;62.15
7264;BME280;3673;52.480;13.348;2023-01-27T07:16:10;101924.13;;;6.95;63.08
7264;BME280;3673;52.480;13.348;2023-01-27T07:18:37;101914.53;;;7.20;62.83
7264;BME280;3673;52.480;13.348;2023-01-27T07:21:04;101914.78;;;7.28;62.89
7264;BME280;3673;52.480;13.348;2023-01-27T07:23:31;101920.69;;;7.22;62.62
7264;BME280;3673;52.480;13.348;2023-01-27T07:26:00;101920.38;;;7.40;62.74
7264;BME280;3673;52.480;13.348;2023-01-27T07:28:28;101929.19;;;7.45;62.62
7264;BME280;3673;52.480;13.348;2023-01-27T07:31:00;101928.66;;;7.27;62.64
7264;BME280;3673;52.480;13.348;2023-01-27T07:33:27;101923.38;;;7.25;64.39
7264;BME280;3673;52.480;13.348;2023-01-27T07:35:54;101932.44;;;7.38;63.17
7264;BME280;3673;52.480;13.348;2023-01-27T07:38:21;101928.88;;;7.35;63.38
7264;BME280;3673;52.480;13.348;2023-01-27T07:40:48;101934.97;;;7.35;62.98
7264;BME280;3673;52.480;13.348;2023-01-27T07:43:15;101931.72;;;7.15;64.10
7264;BME280;3673;52.480;13.348;2023-01-27T07:45:42;101944.00;;;7.19;64.03
7264;BME280;3673;52.480;13.348;2023-01-27T07:48:14;101941.53;;;7.24;63.57
7264;BME280;3673;52.480;13.348;2023-01-27T07:50:41;101932.75;;;7.20;63.80
7264;BME280;3673;52.480;13.348;2023-01-27T07:53:09;101941.34;;;6.91;64.32
7264;BME280;3673;52.480;13.348;2023-01-27T07:55:37;101942.13;;;7.15;64.35
7264;BME280;3673;52.480;13.348;2023-01-27T07:58:04;101951.13;;;7.25;63.94
7264;BME280;3673;52.480;13.348;2023-01-27T08:00:31;101953.81;;;7.01;64.40
7264;BME280;3673;52.480;13.348;2023-01-27T08:02:59;101953.44;;;7.16;64.11
7264;BME280;3673;52.480;13.348;2023-01-27T08:05:30;101951.03;;;7.22;64.11
7264;BME280;3673;52.480;13.348;2023-01-27T08:07:57;101950.94;;;7.19;64.22
7264;BME280;3673;52.480;13.348;2023-01-27T08:10:28;101935.94;;;7.39;63.74
7264;BME280;3673;52.480;13.348;2023-01-27T08:12:55;101942.56;;;7.56;63.31
7264;BME280;3673;52.480;13.348;2023-01-27T08:15:21;101951.28;;;7.58;63.27
7264;BME280;3673;52.480;13.348;2023-01-27T08:17:53;101947.28;;;7.41;63.66
7264;BME280;3673;52.480;13.348;2023-01-27T08:20:21;101954.34;;;7.45;63.71
7264;BME280;3673;52.480;13.348;2023-01-27T08:22:49;101943.13;;;7.47;63.74
7264;BME280;3673;52.480;13.348;2023-01-27T08:25:16;101950.59;;;7.63;63.65
7264;BME280;3673;52.480;13.348;2023-01-27T08:27:43;101963.81;;;7.69;63.90
7264;BME280;3673;52.480;13.348;2023-01-27T08:30:10;101955.81;;;7.63;63.73
7264;BME280;3673;52.480;13.348;2023-01-27T08:32:37;101955.25;;;7.73;63.01
7264;BME280;3673;52.480;13.348;2023-01-27T08:35:05;101957.97;;;7.78;63.16
7264;BME280;3673;52.480;13.348;2023-01-27T08:37:32;101953.75;;;7.82;63.23
7264;BME280;3673;52.480;13.348;2023-01-27T08:40:00;101956.72;;;7.94;62.79
7264;BME280;3673;52.480;13.348;2023-01-27T08:42:27;101967.66;;;7.82;63.23
7264;BME280;3673;52.480;13.348;2023-01-27T08:44:53;101964.66;;;7.98;63.13
7264;BME280;3673;52.480;13.348;2023-01-27T08:47:20;101969.13;;;8.02;63.02
7264;BME280;3673;52.480;13.348;2023-01-27T08:49:47;101975.41;;;8.09;62.82
7264;BME280;3673;52.480;13.348;2023-01-27T08:52:14;101968.06;;;7.96;63.25
7264;BME280;3673;52.480;13.348;2023-01-27T08:54:41;101970.41;;;7.87;63.23
7264;BME280;3673;52.480;13.348;2023-01-27T08:57:09;101971.16;;;7.83;63.35
7264;BME280;3673;52.480;13.348;2023-01-27T08:59:36;101978.88;;;7.80;63.73
7264;BME280;3673;52.480;13.348;2023-01-27T09:02:03;101984.19;;;7.83;63.91
7264;BME280;3673;52.480;13.348;2023-01-27T09:04:30;101980.91;;;7.90;63.79
7264;BME280;3673;52.480;13.348;2023-01-27T09:06:57;101978.31;;;7.90;63.49
7264;BME280;3673;52.480;13.348;2023-01-27T09:09:23;101979.16;;;7.89;63.80
7264;BME280;3673;52.480;13.348;2023-01-27T09:11:50;101980.94;;;7.91;64.19
7264;BME280;3673;52.480;13.348;2023-01-27T09:14:18;101980.06;;;7.91;64.02
7264;BME280;3673;52.480;13.348;2023-01-27T09:16:45;101985.56;;;8.00;63.39
7264;BME280;3673;52.480;13.348;2023-01-27T09:19:12;101991.84;;;8.06;63.77
7264;BME280;3673;52.480;13.348;2023-01-27T09:21:38;101995.44;;;7.82;64.09
7264;BME280;3673;52.480;13.348;2023-01-27T09:24:05;101998.22;;;8.17;63.64
7264;BME280;3673;52.480;13.348;2023-01-27T09:26:32;102003.34;;;8.14;63.95
7264;BME280;3673;52.480;13.348;2023-01-27T09:28:59;102000.06;;;7.90;63.60
7264;BME280;3673;52.480;13.348;2023-01-27T09:31:27;102006.84;;;8.15;63.60
7264;BME280;3673;52.480;13.348;2023-01-27T09:33:53;102008.56;;;8.14;63.63
7264;BME280;3673;52.480;13.348;2023-01-27T09:36:20;102018.59;;;8.01;64.14
7264;BME280;3673;52.480;13.348;2023-01-27T09:38:52;102011.69;;;8.31;63.18
7264;BME280;3673;52.480;13.348;2023-01-27T09:45:29;102007.38;;;8.03;64.33
7264;BME280;3673;52.480;13.348;2023-01-27T09:48:22;102023.16;;;8.36;63.12
7264;BME280;3673;52.480;13.348;2023-01-27T09:51:04;102015.66;;;8.48;62.44
7264;BME280;3673;52.480;13.348;2023-01-27T09:54:06;102025.47;;;8.27;63.00
7264;BME280;3673;52.480;13.348;2023-01-27T09:57:04;102012.16;;;8.48;62.98
7264;BME280;3673;52.480;13.348;2023-01-27T10:00:02;102017.19;;;8.40;63.41
7264;BME280;3673;52.480;13.348;2023-01-27T10:03:04;102015.59;;;8.45;63.47
7264;BME280;3673;52.480;13.348;2023-01-27T10:10:05;102025.09;;;8.15;63.87
7264;BME280;3673;52.480;13.348;2023-01-27T10:13:26;102024.63;;;8.58;62.68
7264;BME280;3673;52.480;13.348;2023-01-27T10:16:14;102024.22;;;8.43;63.13
7264;BME280;3673;52.480;13.348;2023-01-27T10:19:07;102030.16;;;8.37;62.79
7264;BME280;3673;52.480;13.348;2023-01-27T10:21:49;102023.56;;;8.51;62.51
7264;BME280;3673;52.480;13.348;2023-01-27T10:24:34;102024.44;;;8.50;63.43
7264;BME280;3673;52.480;13.348;2023-01-27T10:27:11;102030.41;;;8.48;62.90
7264;BME280;3673;52.480;13.348;2023-01-27T10:29:44;102030.56;;;8.24;63.28
7264;BME280;3673;52.480;13.348;2023-01-27T10:32:21;102037.81;;;8.33;62.92
7264;BME280;3673;52.480;13.348;2023-01-27T10:35:03;102028.03;;;8.55;62.54
7264;BME280;3673;52.480;13.348;2023-01-27T10:37:40;102029.25;;;8.37;62.69
7264;BME280;3673;52.480;13.348;2023-01-27T10:40:18;102026.25;;;8.54;62.63
7264;BME280;3673;52.480;13.348;2023-01-27T10:42:54;102035.41;;;8.70;61.87
7264;BME280;3673;52.480;13.348;2023-01-27T10:45:27;102041.53;;;8.70;61.83
7264;BME280;3673;52.480;13.348;2023-01-27T10:48:20;102034.44;;;8.66;62.17
7264;BME280;3673;52.480;13.348;2023-01-27T10:50:54;102027.84;;;8.79;61.75
7264;BME280;3673;52.480;13.348;2023-01-27T10:53:31;102031.47;;;8.24;62.82
7264;BME280;3673;52.480;13.348;2023-01-27T10:56:04;102029.41;;;8.14;62.90
7264;BME280;3673;52.480;13.348;2023-01-27T10:58:46;102024.38;;;8.49;62.60
7264;BME280;3673;52.480;13.348;2023-01-27T11:01:19;102033.63;;;8.38;62.28
7264;BME280;3673;52.480;13.348;2023-01-27T11:03:55;102036.69;;;8.54;62.64
7264;BME280;3673;52.480;13.348;2023-01-27T11:06:29;102036.91;;;8.60;61.75
7264;BME280;3673;52.480;13.348;2023-01-27T11:09:09;102026.16;;;8.21;62.23
7264;BME280;3673;52.480;13.348;2023-01-27T11:11:38;102031.69;;;8.31;62.48
7264;BME280;3673;52.480;13.348;2023-01-27T11:14:24;102029.94;;;8.31;62.34
7264;BME280;3673;52.480;13.348;2023-01-27T11:16:52;102031.88;;;8.38;62.31
7264;BME280;3673;52.480;13.348;2023-01-27T11:19:39;102032.59;;;8.62;61.61
7264;BME280;3673;52.480;13.348;2023-01-27T11:22:18;102029.41;;;8.74;60.83
7264;BME280;3673;52.480;13.348;2023-01-27T11:24:52;102030.97;;;8.67;60.62
7264;BME280;3673;52.480;13.348;2023-01-27T11:27:40;102025.69;;;8.64;61.35
7264;BME280;3673;52.480;13.348;2023-01-27T11:30:17;102023.53;;;8.81;60.40
7264;BME280;3673;52.480;13.348;2023-01-27T11:32:56;102022.31;;;8.37;61.57
7264;BME280;3673;52.480;13.348;2023-01-27T11:35:27;102030.88;;;8.63;61.30
7264;BME280;3673;52.480;13.348;2023-01-27T11:37:55;102028.72;;;8.79;60.50
7264;BME280;3673;52.480;13.348;2023-01-27T11:40:26;102023.28;;;9.05;60.57
7264;BME280;3673;52.480;13.348;2023-01-27T11:42:54;102017.22;;;9.06;60.35
7264;BME280;3673;52.480;13.348;2023-01-27T11:45:24;102018.81;;;8.99;60.67
7264;BME280;3673;52.480;13.348;2023-01-27T11:47:55;102020.59;;;9.02;60.41
7264;BME280;3673;52.480;13.348;2023-01-27T11:50:27;102021.34;;;8.98;59.89
7264;BME280;3673;52.480;13.348;2023-01-27T11:53:08;102018.81;;;8.99;60.11
7264;BME280;3673;52.480;13.348;2023-01-27T11:55:39;102031.44;;;8.84;60.39
7264;BME280;3673;52.480;13.348;2023-01-27T11:58:14;102025.91;;;9.05;59.97
7264;BME280;3673;52.480;13.348;2023-01-27T12:00:48;102022.41;;;9.04;60.39
7264;BME280;3673;52.480;13.348;2023-01-27T12:03:20;102018.22;;;8.78;60.12
7264;BME280;3673;52.480;13.348;2023-01-27T12:05:54;102024.00;;;8.66;60.88
7264;BME280;3673;52.480;13.348;2023-01-27T12:08:41;102021.34;;;8.34;60.42
7264;BME280;3673;52.480;13.348;2023-01-27T12:11:24;102010.63;;;8.54;60.82
7264;BME280;3673;52.480;13.348;2023-01-27T12:13:54;102026.34;;;8.57;60.48
7264;BME280;3673;52.480;13.348;2023-01-27T12:16:33;102029.50;;;8.46;61.05
7264;BME280;3673;52.480;13.348;2023-01-27T12:19:22;102024.22;;;8.44;61.46
7264;BME280;3673;52.480;13.348;2023-01-27T12:21:55;102036.09;;;8.33;61.23
7264;BME280;3673;52.480;13.348;2023-01-27T12:24:28;102032.09;;;8.16;61.19
7264;BME280;3673;52.480;13.348;2023-01-27T12:26:57;102026.25;;;8.54;60.99
7264;BME280;3673;52.480;13.348;2023-01-27T12:29:29;102024.53;;;8.53;61.07
7264;BME280;3673;52.480;13.348;2023-01-27T12:31:59;102023.16;;;8.36;61.04
7264;BME280;3673;52.480;13.348;2023-01-27T12:34:30;102017.59;;;8.55;60.58
7264;BME280;3673;52.480;13.348;2023-01-27T12:36:58;102034.31;;;8.62;60.72
7264;BME280;3673;52.480;13.348;2023-01-27T12:39:41;102025.66;;;8.63;60.77
7264;BME280;3673;52.480;13.348;2023-01-27T12:42:32;102018.91;;;8.71;60.48
7264;BME280;3673;52.480;13.348;2023-01-27T12:45:08;102020.53;;;8.66;60.64
7264;BME280;3673;52.480;13.348;2023-01-27T12:47:56;102021.59;;;8.43;60.91
7264;BME280;3673;52.480;13.348;2023-01-27T12:50:26;102022.22;;;8.34;61.44
7264;BME280;3673;52.480;13.348;2023-01-27T12:53:04;102020.72;;;8.42;60.78
7264;BME280;3673;52.480;13.348;2023-01-27T12:55:35;102028.09;;;8.57;60.52
7264;BME280;3673;52.480;13.348;2023-01-27T12:58:04;102026.97;;;8.47;60.75
7264;BME280;3673;52.480;13.348;2023-01-27T13:00:32;102029.16;;;8.63;59.99
7264;BME280;3673;52.480;13.348;2023-01-27T13:03:05;102030.91;;;8.35;60.60
7264;BME280;3673;52.480;13.348;2023-01-27T13:05:38;102036.16;;;8.08;61.28
7264;BME280;3673;52.480;13.348;2023-01-27T13:08:13;102033.09;;;8.21;61.10
7264;BME280;3673;52.480;13.348;2023-01-27T13:10:50;102039.72;;;8.10;61.16
7264;BME280;3673;52.480;13.348;2023-01-27T13:13:23;102036.66;;;8.23;61.21
7264;BME280;3673;52.480;13.348;2023-01-27T13:15:52;102042.44;;;8.14;61.06
7264;BME280;3673;52.480;13.348;2023-01-27T13:18:21;102042.28;;;8.08;61.62
7264;BME280;3673;52.480;13.348;2023-01-27T13:20:52;102040.34;;;8.59;60.58
7264;BME280;3673;52.480;13.348;2023-01-27T13:23:24;102035.16;;;8.31;60.31
7264;BME280;3673;52.480;13.348;2023-01-27T13:25:56;102033.41;;;8.61;60.09
7264;BME280;3673;52.480;13.348;2023-01-27T13:28:33;102040.66;;;8.40;60.73
7264;BME280;3673;52.480;13.348;2023-01-27T13:31:04;102038.22;;;8.18;60.71
7264;BME280;3673;52.480;13.348;2023-01-27T13:33:38;102037.66;;;8.56;59.85
7264;BME280;3673;52.480;13.348;2023-01-27T13:36:15;102041.06;;;8.25;60.53
7264;BME280;3673;52.480;13.348;2023-01-27T13:38:52;102037.28;;;8.44;60.27
7264;BME280;3673;52.480;13.348;2023-01-27T13:41:30;102038.75;;;8.35;59.97